sensor_id;sensor_type;location;lat;lon;timestamp;temperature;humidity
19342;DHT22;9807;48.258;12.690;2022-09-09T00:00:17;18.90;99.90
19342;DHT22;9807;48.258;12.690;2022-09-09T00:03:11;18.90;99.90
19342;DHT22;9807;48.258;12.690;2022-09-09T00:06:08;18.80;99.90
19342;DHT22;9807;48.258;12.690;2022-09-09T00:16:53;18.80;99.90
19342;DHT22;9807;48.258;12.690;2022-09-09T00:19:33;18.70;99.90
19342;DHT22;9807;48.258;12.690;2022-09-09T00:24:54;18.70;99.90
19342;DHT22;9807;48.258;12.690;2022-09-09T00:27:46;18.70;99.90
19342;DHT22;9807;48.258;12.690;2022-09-09T00:30:23;18.70;99.90
19342;DHT22;9807;48.258;12.690;2022-09-09T00:32:58;18.70;99.90
19342;DHT22;9807;48.258;12.690;2022-09-09T00:35:31;18.70;99.90
19342;DHT22;9807;48.258;12.690;2022-09-09T00:38:13;18.70;99.90
19342;DHT22;9807;48.258;12.690;2022-09-09T00:40:50;18.60;99.90
19342;DHT22;9807;48.258;12.690;2022-09-09T00:43:35;18.70;99.90
19342;DHT22;9807;48.258;12.690;2022-09-09T00:49:00;18.60;99.90
19342;DHT22;9807;48.258;12.690;2022-09-09T00:57:22;18.50;99.90
19342;DHT22;9807;48.258;12.690;2022-09-09T01:00:27;18.50;99.90
19342;DHT22;9807;48.258;12.690;2022-09-09T01:03:33;18.50;99.90
19342;DHT22;9807;48.258;12.690;2022-09-09T01:14:45;18.50;99.90
19342;DHT22;9807;48.258;12.690;2022-09-09T01:20:12;18.40;99.90
19342;DHT22;9807;48.258;12.690;2022-09-09T01:22:47;18.40;99.90
19342;DHT22;9807;48.258;12.690;2022-09-09T01:28:24;18.30;99.90
19342;DHT22;9807;48.258;12.690;2022-09-09T01:30:50;18.30;99.90
19342;DHT22;9807;48.258;12.690;2022-09-09T01:33:17;18.30;99.90
19342;DHT22;9807;48.258;12.690;2022-09-09T01:36:03;18.30;99.90
19342;DHT22;9807;48.258;12.690;2022-09-09T01:38:31;18.30;99.90
19342;DHT22;9807;48.258;12.690;2022-09-09T01:40:58;18.30;99.90
19342;DHT22;9807;48.258;12.690;2022-09-09T01:43:24;18.30;99.90
19342;DHT22;9807;48.258;12.690;2022-09-09T01:45:56;18.30;99.90
19342;DHT22;9807;48.258;12.690;2022-09-09T01:48:24;18.30;99.90
19342;DHT22;9807;48.258;12.690;2022-09-09T01:50:51;18.30;99.90
19342;DHT22;9807;48.258;12.690;2022-09-09T01:53:18;18.30;99.90
19342;DHT22;9807;48.258;12.690;2022-09-09T01:56:00;18.20;99.90
19342;DHT22;9807;48.258;12.690;2022-09-09T01:59:24;18.30;99.90
19342;DHT22;9807;48.258;12.690;2022-09-09T02:01:39;18.20;99.90
19342;DHT22;9807;48.258;12.690;2022-09-09T02:07:06;18.20;99.90
19342;DHT22;9807;48.258;12.690;2022-09-09T02:09:36;18.30;99.90
19342;DHT22;9807;48.258;12.690;2022-09-09T02:12:12;18.20;99.90
19342;DHT22;9807;48.258;12.690;2022-09-09T02:14:48;18.20;99.90
19342;DHT22;9807;48.258;12.690;2022-09-09T02:17:19;18.20;99.90
19342;DHT22;9807;48.258;12.690;2022-09-09T02:19:54;18.20;99.90
19342;DHT22;9807;48.258;12.690;2022-09-09T02:22:24;18.20;99.90
19342;DHT22;9807;48.258;12.690;2022-09-09T02:24:58;18.20;99.90
19342;DHT22;9807;48.258;12.690;2022-09-09T02:27:24;18.10;99.90
19342;DHT22;9807;48.258;12.690;2022-09-09T02:29:51;18.10;99.90
19342;DHT22;9807;48.258;12.690;2022-09-09T02:32:21;18.00;99.90
19342;DHT22;9807;48.258;12.690;2022-09-09T02:34:53;18.00;99.90
19342;DHT22;9807;48.258;12.690;2022-09-09T02:37:24;18.00;99.90
19342;DHT22;9807;48.258;12.690;2022-09-09T02:39:56;18.10;99.90
19342;DHT22;9807;48.258;12.690;2022-09-09T02:42:22;18.10;99.90
19342;DHT22;9807;48.258;12.690;2022-09-09T02:44:47;18.10;99.90
19342;DHT22;9807;48.258;12.690;2022-09-09T02:47:35;18.00;99.90
19342;DHT22;9807;48.258;12.690;2022-09-09T02:50:16;17.90;99.90
19342;DHT22;9807;48.258;12.690;2022-09-09T02:55:41;17.80;99.90
19342;DHT22;9807;48.258;12.690;2022-09-09T02:58:07;17.90;99.90
19342;DHT22;9807;48.258;12.690;2022-09-09T03:00:35;17.90;99.90
19342;DHT22;9807;48.258;12.690;2022-09-09T03:03:03;17.60;99.90
19342;DHT22;9807;48.258;12.690;2022-09-09T03:05:29;17.60;99.90
19342;DHT22;9807;48.258;12.690;2022-09-09T03:07:55;17.80;99.90
19342;DHT22;9807;48.258;12.690;2022-09-09T03:10:21;17.80;99.90
19342;DHT22;9807;48.258;12.690;2022-09-09T03:12:47;17.90;99.90
19342;DHT22;9807;48.258;12.690;2022-09-09T03:15:15;18.00;99.90
19342;DHT22;9807;48.258;12.690;2022-09-09T03:17:41;18.00;99.90
19342;DHT22;9807;48.258;12.690;2022-09-09T03:20:10;18.00;99.90
19342;DHT22;9807;48.258;12.690;2022-09-09T03:22:36;18.00;99.90
19342;DHT22;9807;48.258;12.690;2022-09-09T03:25:01;17.60;99.90
19342;DHT22;9807;48.258;12.690;2022-09-09T03:27:31;17.20;99.90
19342;DHT22;9807;48.258;12.690;2022-09-09T03:30:00;17.30;99.90
19342;DHT22;9807;48.258;12.690;2022-09-09T03:32:32;17.40;99.90
19342;DHT22;9807;48.258;12.690;2022-09-09T03:34:58;17.60;99.90
19342;DHT22;9807;48.258;12.690;2022-09-09T03:37:23;17.80;99.90
19342;DHT22;9807;48.258;12.690;2022-09-09T03:39:49;17.90;99.90
19342;DHT22;9807;48.258;12.690;2022-09-09T03:42:18;17.90;99.90
19342;DHT22;9807;48.258;12.690;2022-09-09T03:44:44;17.90;99.90
19342;DHT22;9807;48.258;12.690;2022-09-09T03:47:13;17.70;99.90
19342;DHT22;9807;48.258;12.690;2022-09-09T03:49:41;17.50;99.90
19342;DHT22;9807;48.258;12.690;2022-09-09T03:52:08;17.60;99.90
19342;DHT22;9807;48.258;12.690;2022-09-09T03:54:34;17.80;99.90
19342;DHT22;9807;48.258;12.690;2022-09-09T03:57:01;17.90;99.90
19342;DHT22;9807;48.258;12.690;2022-09-09T03:59:29;17.90;99.90
19342;DHT22;9807;48.258;12.690;2022-09-09T04:01:55;18.00;99.90
19342;DHT22;9807;48.258;12.690;2022-09-09T04:04:22;18.00;99.90
19342;DHT22;9807;48.258;12.690;2022-09-09T04:06:48;18.10;99.90
19342;DHT22;9807;48.258;12.690;2022-09-09T04:09:14;18.10;99.90
19342;DHT22;9807;48.258;12.690;2022-09-09T04:11:40;18.10;99.90
19342;DHT22;9807;48.258;12.690;2022-09-09T04:14:06;18.20;99.90
19342;DHT22;9807;48.258;12.690;2022-09-09T04:16:33;18.20;99.90
19342;DHT22;9807;48.258;12.690;2022-09-09T04:19:00;18.20;99.90
19342;DHT22;9807;48.258;12.690;2022-09-09T04:21:27;18.20;99.90
19342;DHT22;9807;48.258;12.690;2022-09-09T04:23:56;18.10;99.90
19342;DHT22;9807;48.258;12.690;2022-09-09T04:26:22;18.20;99.90
19342;DHT22;9807;48.258;12.690;2022-09-09T04:28:47;18.20;99.90
19342;DHT22;9807;48.258;12.690;2022-09-09T04:31:23;18.20;99.90
19342;DHT22;9807;48.258;12.690;2022-09-09T04:33:49;18.20;99.90
19342;DHT22;9807;48.258;12.690;2022-09-09T04:36:15;18.20;99.90
19342;DHT22;9807;48.258;12.690;2022-09-09T04:38:42;18.20;99.90
19342;DHT22;9807;48.258;12.690;2022-09-09T04:41:10;18.10;99.90
19342;DHT22;9807;48.258;12.690;2022-09-09T04:43:37;18.10;99.90
19342;DHT22;9807;48.258;12.690;2022-09-09T04:46:05;18.10;99.90
19342;DHT22;9807;48.258;12.690;2022-09-09T04:48:37;18.10;99.90
19342;DHT22;9807;48.258;12.690;2022-09-09T04:51:08;18.20;99.90
19342;DHT22;9807;48.258;12.690;2022-09-09T04:53:35;18.20;99.90
19342;DHT22;9807;48.258;12.690;2022-09-09T04:56:05;18.20;99.90
19342;DHT22;9807;48.258;12.690;2022-09-09T04:58:32;18.20;99.90
19342;DHT22;9807;48.258;12.690;2022-09-09T05:01:06;18.20;99.90
19342;DHT22;9807;48.258;12.690;2022-09-09T05:03:32;18.20;99.90
19342;DHT22;9807;48.258;12.690;2022-09-09T05:06:10;18.30;99.90
19342;DHT22;9807;48.258;12.690;2022-09-09T05:08:37;18.20;99.90
19342;DHT22;9807;48.258;12.690;2022-09-09T05:11:20;18.20;99.90
19342;DHT22;9807;48.258;12.690;2022-09-09T05:13:46;18.20;99.90
19342;DHT22;9807;48.258;12.690;2022-09-09T05:16:13;18.10;99.90
19342;DHT22;9807;48.258;12.690;2022-09-09T05:18:40;18.00;99.90
19342;DHT22;9807;48.258;12.690;2022-09-09T05:21:07;17.80;99.90
19342;DHT22;9807;48.258;12.690;2022-09-09T05:23:36;17.90;99.90
19342;DHT22;9807;48.258;12.690;2022-09-09T05:26:05;18.00;99.90
19342;DHT22;9807;48.258;12.690;2022-09-09T05:28:34;18.00;99.90
19342;DHT22;9807;48.258;12.690;2022-09-09T05:31:03;18.10;99.90
19342;DHT22;9807;48.258;12.690;2022-09-09T05:33:31;18.20;99.90
19342;DHT22;9807;48.258;12.690;2022-09-09T05:36:01;18.20;99.90
19342;DHT22;9807;48.258;12.690;2022-09-09T05:38:28;18.20;99.90
19342;DHT22;9807;48.258;12.690;2022-09-09T05:40:55;18.20;99.90
19342;DHT22;9807;48.258;12.690;2022-09-09T05:43:22;18.20;99.90
19342;DHT22;9807;48.258;12.690;2022-09-09T05:45:58;18.20;99.90
19342;DHT22;9807;48.258;12.690;2022-09-09T05:48:30;18.20;99.90
19342;DHT22;9807;48.258;12.690;2022-09-09T05:50:56;18.20;99.90
19342;DHT22;9807;48.258;12.690;2022-09-09T05:53:21;18.30;99.90
19342;DHT22;9807;48.258;12.690;2022-09-09T05:55:47;18.30;99.90
19342;DHT22;9807;48.258;12.690;2022-09-09T05:58:13;18.30;99.90
19342;DHT22;9807;48.258;12.690;2022-09-09T06:00:40;18.30;99.90
19342;DHT22;9807;48.258;12.690;2022-09-09T06:03:06;18.30;99.90
19342;DHT22;9807;48.258;12.690;2022-09-09T06:05:32;18.30;99.90
19342;DHT22;9807;48.258;12.690;2022-09-09T06:07:58;18.20;99.90
19342;DHT22;9807;48.258;12.690;2022-09-09T06:10:23;18.20;99.90
19342;DHT22;9807;48.258;12.690;2022-09-09T06:12:55;18.30;99.90
19342;DHT22;9807;48.258;12.690;2022-09-09T06:15:21;18.30;99.90
19342;DHT22;9807;48.258;12.690;2022-09-09T06:17:47;18.20;99.90
19342;DHT22;9807;48.258;12.690;2022-09-09T06:20:12;18.20;99.90
19342;DHT22;9807;48.258;12.690;2022-09-09T06:22:41;18.20;99.90
19342;DHT22;9807;48.258;12.690;2022-09-09T06:25:10;18.30;99.90
19342;DHT22;9807;48.258;12.690;2022-09-09T06:27:36;18.40;99.90
19342;DHT22;9807;48.258;12.690;2022-09-09T06:30:02;18.30;99.90
19342;DHT22;9807;48.258;12.690;2022-09-09T06:32:31;18.20;99.90
19342;DHT22;9807;48.258;12.690;2022-09-09T06:35:00;18.20;99.90
19342;DHT22;9807;48.258;12.690;2022-09-09T06:37:29;18.30;99.90
19342;DHT22;9807;48.258;12.690;2022-09-09T06:39:58;18.20;99.90
19342;DHT22;9807;48.258;12.690;2022-09-09T06:42:23;18.20;99.90
19342;DHT22;9807;48.258;12.690;2022-09-09T06:44:49;18.30;99.90
19342;DHT22;9807;48.258;12.690;2022-09-09T06:47:15;18.30;99.90
19342;DHT22;9807;48.258;12.690;2022-09-09T06:49:41;18.10;99.90
19342;DHT22;9807;48.258;12.690;2022-09-09T06:52:08;18.10;99.90
19342;DHT22;9807;48.258;12.690;2022-09-09T06:54:34;18.00;99.90
19342;DHT22;9807;48.258;12.690;2022-09-09T06:57:02;18.00;99.90
19342;DHT22;9807;48.258;12.690;2022-09-09T06:59:34;18.00;99.90
19342;DHT22;9807;48.258;12.690;2022-09-09T07:02:00;18.00;99.90
19342;DHT22;9807;48.258;12.690;2022-09-09T07:04:29;18.20;99.90
19342;DHT22;9807;48.258;12.690;2022-09-09T07:06:55;18.30;99.90
19342;DHT22;9807;48.258;12.690;2022-09-09T07:09:20;18.50;99.90
19342;DHT22;9807;48.258;12.690;2022-09-09T07:11:49;18.50;99.90
19342;DHT22;9807;48.258;12.690;2022-09-09T07:14:16;18.60;99.90
19342;DHT22;9807;48.258;12.690;2022-09-09T07:16:43;18.60;99.90
19342;DHT22;9807;48.258;12.690;2022-09-09T07:19:12;18.60;99.90
19342;DHT22;9807;48.258;12.690;2022-09-09T07:21:38;18.70;99.90
19342;DHT22;9807;48.258;12.690;2022-09-09T07:24:06;18.70;99.90
19342;DHT22;9807;48.258;12.690;2022-09-09T07:26:40;18.70;99.90
19342;DHT22;9807;48.258;12.690;2022-09-09T07:29:09;18.80;99.90
19342;DHT22;9807;48.258;12.690;2022-09-09T07:31:41;18.80;99.90
19342;DHT22;9807;48.258;12.690;2022-09-09T07:34:07;18.80;99.90
19342;DHT22;9807;48.258;12.690;2022-09-09T07:36:35;18.80;99.90
19342;DHT22;9807;48.258;12.690;2022-09-09T07:39:09;18.80;99.90
19342;DHT22;9807;48.258;12.690;2022-09-09T07:41:44;18.90;99.90
19342;DHT22;9807;48.258;12.690;2022-09-09T07:44:22;18.90;99.90
19342;DHT22;9807;48.258;12.690;2022-09-09T07:46:48;18.90;99.90
19342;DHT22;9807;48.258;12.690;2022-09-09T07:49:14;18.90;99.90
19342;DHT22;9807;48.258;12.690;2022-09-09T07:51:46;19.00;99.90
19342;DHT22;9807;48.258;12.690;2022-09-09T07:54:14;19.00;99.90
19342;DHT22;9807;48.258;12.690;2022-09-09T07:56:43;19.00;99.90
19342;DHT22;9807;48.258;12.690;2022-09-09T07:59:09;19.10;99.90
19342;DHT22;9807;48.258;12.690;2022-09-09T08:01:41;19.20;99.90
19342;DHT22;9807;48.258;12.690;2022-09-09T08:04:14;19.20;99.90
19342;DHT22;9807;48.258;12.690;2022-09-09T08:06:54;19.30;99.90
19342;DHT22;9807;48.258;12.690;2022-09-09T08:09:21;19.10;99.90
19342;DHT22;9807;48.258;12.690;2022-09-09T08:11:48;18.90;99.90
19342;DHT22;9807;48.258;12.690;2022-09-09T08:14:19;18.80;99.90
19342;DHT22;9807;48.258;12.690;2022-09-09T08:16:49;18.80;99.90
19342;DHT22;9807;48.258;12.690;2022-09-09T08:19:15;18.80;99.90
19342;DHT22;9807;48.258;12.690;2022-09-09T08:21:42;18.80;99.90
19342;DHT22;9807;48.258;12.690;2022-09-09T08:24:09;18.80;99.90
19342;DHT22;9807;48.258;12.690;2022-09-09T08:26:42;18.90;99.90
19342;DHT22;9807;48.258;12.690;2022-09-09T08:29:09;19.20;99.90
19342;DHT22;9807;48.258;12.690;2022-09-09T08:31:44;19.30;99.90
19342;DHT22;9807;48.258;12.690;2022-09-09T08:34:10;19.40;99.90
19342;DHT22;9807;48.258;12.690;2022-09-09T08:36:41;19.60;99.90
19342;DHT22;9807;48.258;12.690;2022-09-09T08:39:09;19.60;99.90
19342;DHT22;9807;48.258;12.690;2022-09-09T08:55:22;19.40;99.90
19342;DHT22;9807;48.258;12.690;2022-09-09T08:58:08;19.10;99.90
19342;DHT22;9807;48.258;12.690;2022-09-09T09:03:35;18.60;99.90
19342;DHT22;9807;48.258;12.690;2022-09-09T09:12:00;18.40;99.90
19342;DHT22;9807;48.258;12.690;2022-09-09T09:14:34;18.30;99.90
19342;DHT22;9807;48.258;12.690;2022-09-09T09:17:06;18.00;99.90
19342;DHT22;9807;48.258;12.690;2022-09-09T09:19:37;17.60;99.90
19342;DHT22;9807;48.258;12.690;2022-09-09T09:24:55;17.70;99.90
19342;DHT22;9807;48.258;12.690;2022-09-09T09:27:25;17.80;99.90
19342;DHT22;9807;48.258;12.690;2022-09-09T09:29:55;18.00;99.90
19342;DHT22;9807;48.258;12.690;2022-09-09T09:32:24;18.00;99.90
19342;DHT22;9807;48.258;12.690;2022-09-09T09:34:55;18.10;99.90
19342;DHT22;9807;48.258;12.690;2022-09-09T09:37:32;18.40;99.90
19342;DHT22;9807;48.258;12.690;2022-09-09T09:40:29;18.60;99.90
19342;DHT22;9807;48.258;12.690;2022-09-09T09:43:00;18.90;99.90
19342;DHT22;9807;48.258;12.690;2022-09-09T09:45:33;19.00;99.90
19342;DHT22;9807;48.258;12.690;2022-09-09T09:48:31;19.20;99.90
19342;DHT22;9807;48.258;12.690;2022-09-09T09:50:59;19.40;99.90
19342;DHT22;9807;48.258;12.690;2022-09-09T09:53:37;19.40;99.90
19342;DHT22;9807;48.258;12.690;2022-09-09T09:56:09;19.50;99.90
19342;DHT22;9807;48.258;12.690;2022-09-09T09:58:58;19.60;99.90
19342;DHT22;9807;48.258;12.690;2022-09-09T10:03:52;19.70;99.90
19342;DHT22;9807;48.258;12.690;2022-09-09T10:06:39;19.70;99.90
19342;DHT22;9807;48.258;12.690;2022-09-09T10:09:30;19.80;99.90
19342;DHT22;9807;48.258;12.690;2022-09-09T10:17:35;19.70;99.90
19342;DHT22;9807;48.258;12.690;2022-09-09T10:20:15;19.80;99.90
19342;DHT22;9807;48.258;12.690;2022-09-09T10:22:47;19.90;99.90
19342;DHT22;9807;48.258;12.690;2022-09-09T10:28:27;19.90;99.90
19342;DHT22;9807;48.258;12.690;2022-09-09T10:36:48;20.00;99.90
19342;DHT22;9807;48.258;12.690;2022-09-09T10:39:43;20.00;99.90
19342;DHT22;9807;48.258;12.690;2022-09-09T10:42:12;20.00;99.90
19342;DHT22;9807;48.258;12.690;2022-09-09T10:47:49;19.90;99.90
19342;DHT22;9807;48.258;12.690;2022-09-09T10:50:32;19.90;99.90
19342;DHT22;9807;48.258;12.690;2022-09-09T10:55:43;20.10;99.90
19342;DHT22;9807;48.258;12.690;2022-09-09T10:58:22;20.10;99.90
19342;DHT22;9807;48.258;12.690;2022-09-09T11:00:54;20.20;99.90
19342;DHT22;9807;48.258;12.690;2022-09-09T11:03:29;20.20;99.90
19342;DHT22;9807;48.258;12.690;2022-09-09T11:06:02;20.10;99.90
19342;DHT22;9807;48.258;12.690;2022-09-09T11:08:32;20.00;99.90
19342;DHT22;9807;48.258;12.690;2022-09-09T11:11:11;20.00;99.90
19342;DHT22;9807;48.258;12.690;2022-09-09T11:13:55;20.00;99.90
19342;DHT22;9807;48.258;12.690;2022-09-09T11:19:26;19.90;99.90
19342;DHT22;9807;48.258;12.690;2022-09-09T11:21:59;19.90;99.90
19342;DHT22;9807;48.258;12.690;2022-09-09T11:24:40;20.00;99.90
19342;DHT22;9807;48.258;12.690;2022-09-09T11:27:08;20.00;99.90
19342;DHT22;9807;48.258;12.690;2022-09-09T11:30:04;20.20;99.90
19342;DHT22;9807;48.258;12.690;2022-09-09T11:32:40;20.20;99.90
19342;DHT22;9807;48.258;12.690;2022-09-09T11:40:31;20.40;99.90
19342;DHT22;9807;48.258;12.690;2022-09-09T11:43:24;20.40;99.90
19342;DHT22;9807;48.258;12.690;2022-09-09T11:45:55;20.50;99.90
19342;DHT22;9807;48.258;12.690;2022-09-09T11:48:43;20.40;99.90
19342;DHT22;9807;48.258;12.690;2022-09-09T11:56:50;20.60;99.90
19342;DHT22;9807;48.258;12.690;2022-09-09T11:59:25;20.70;99.90
19342;DHT22;9807;48.258;12.690;2022-09-09T12:02:22;20.70;99.90
19342;DHT22;9807;48.258;12.690;2022-09-09T12:05:02;20.70;99.90
19342;DHT22;9807;48.258;12.690;2022-09-09T12:07:45;20.70;99.90
19342;DHT22;9807;48.258;12.690;2022-09-09T12:10:30;20.70;99.90
19342;DHT22;9807;48.258;12.690;2022-09-09T12:13:17;20.70;99.90
19342;DHT22;9807;48.258;12.690;2022-09-09T12:15:52;20.70;99.90
19342;DHT22;9807;48.258;12.690;2022-09-09T12:21:10;20.80;99.90
19342;DHT22;9807;48.258;12.690;2022-09-09T12:26:36;20.80;99.90
19342;DHT22;9807;48.258;12.690;2022-09-09T12:32:13;20.80;99.90
19342;DHT22;9807;48.258;12.690;2022-09-09T12:37:54;20.80;99.90
19342;DHT22;9807;48.258;12.690;2022-09-09T12:40:29;20.80;99.90
19342;DHT22;9807;48.258;12.690;2022-09-09T12:42:55;20.80;99.90
19342;DHT22;9807;48.258;12.690;2022-09-09T12:45:25;20.90;99.90
19342;DHT22;9807;48.258;12.690;2022-09-09T12:48:03;20.90;99.90
19342;DHT22;9807;48.258;12.690;2022-09-09T12:50:38;21.00;99.90
19342;DHT22;9807;48.258;12.690;2022-09-09T12:53:11;21.10;99.90
19342;DHT22;9807;48.258;12.690;2022-09-09T12:55:50;21.10;99.90
19342;DHT22;9807;48.258;12.690;2022-09-09T12:58:19;21.10;99.90
19342;DHT22;9807;48.258;12.690;2022-09-09T13:00:51;21.00;99.90
19342;DHT22;9807;48.258;12.690;2022-09-09T13:03:19;20.90;99.90
19342;DHT22;9807;48.258;12.690;2022-09-09T13:05:49;20.90;99.90
19342;DHT22;9807;48.258;12.690;2022-09-09T13:08:16;20.90;99.90
19342;DHT22;9807;48.258;12.690;2022-09-09T13:11:00;20.90;99.90
19342;DHT22;9807;48.258;12.690;2022-09-09T13:13:38;20.90;99.90
19342;DHT22;9807;48.258;12.690;2022-09-09T13:16:06;20.90;99.90
19342;DHT22;9807;48.258;12.690;2022-09-09T13:18:41;21.10;99.90
19342;DHT22;9807;48.258;12.690;2022-09-09T13:21:07;21.10;99.90
19342;DHT22;9807;48.258;12.690;2022-09-09T13:23:35;21.10;99.90
19342;DHT22;9807;48.258;12.690;2022-09-09T13:26:06;21.00;99.90
19342;DHT22;9807;48.258;12.690;2022-09-09T13:28:33;21.10;99.90
19342;DHT22;9807;48.258;12.690;2022-09-09T13:31:20;21.10;99.90
19342;DHT22;9807;48.258;12.690;2022-09-09T13:33:49;21.10;99.90
19342;DHT22;9807;48.258;12.690;2022-09-09T13:36:15;21.10;99.90
19342;DHT22;9807;48.258;12.690;2022-09-09T13:38:54;21.10;99.90
19342;DHT22;9807;48.258;12.690;2022-09-09T13:41:34;21.10;99.90
19342;DHT22;9807;48.258;12.690;2022-09-09T13:44:04;21.10;99.90
19342;DHT22;9807;48.258;12.690;2022-09-09T13:46:35;21.10;99.90
19342;DHT22;9807;48.258;12.690;2022-09-09T13:49:23;21.10;99.90
19342;DHT22;9807;48.258;12.690;2022-09-09T13:51:49;21.20;99.90
19342;DHT22;9807;48.258;12.690;2022-09-09T13:54:18;21.10;99.90
19342;DHT22;9807;48.258;12.690;2022-09-09T13:56:44;21.10;99.90
19342;DHT22;9807;48.258;12.690;2022-09-09T13:59:18;21.20;99.90
19342;DHT22;9807;48.258;12.690;2022-09-09T14:01:49;21.20;99.90
19342;DHT22;9807;48.258;12.690;2022-09-09T14:04:18;21.20;99.90
19342;DHT22;9807;48.258;12.690;2022-09-09T14:06:48;21.20;99.90
19342;DHT22;9807;48.258;12.690;2022-09-09T14:09:17;21.30;99.90
19342;DHT22;9807;48.258;12.690;2022-09-09T14:11:44;21.30;99.90
19342;DHT22;9807;48.258;12.690;2022-09-09T14:14:11;21.50;99.90
19342;DHT22;9807;48.258;12.690;2022-09-09T14:16:37;21.50;99.90
19342;DHT22;9807;48.258;12.690;2022-09-09T14:19:03;21.60;99.90
19342;DHT22;9807;48.258;12.690;2022-09-09T14:21:29;21.60;99.90
19342;DHT22;9807;48.258;12.690;2022-09-09T14:23:55;21.70;99.90
19342;DHT22;9807;48.258;12.690;2022-09-09T14:26:23;21.70;99.90
19342;DHT22;9807;48.258;12.690;2022-09-09T14:28:50;21.80;99.90
19342;DHT22;9807;48.258;12.690;2022-09-09T14:31:17;21.90;99.90
19342;DHT22;9807;48.258;12.690;2022-09-09T14:33:49;22.10;99.90
19342;DHT22;9807;48.258;12.690;2022-09-09T14:36:19;22.20;99.90
19342;DHT22;9807;48.258;12.690;2022-09-09T14:38:46;22.20;99.90
19342;DHT22;9807;48.258;12.690;2022-09-09T14:41:18;22.30;99.90
19342;DHT22;9807;48.258;12.690;2022-09-09T14:43:44;22.30;99.90
19342;DHT22;9807;48.258;12.690;2022-09-09T14:46:15;22.30;99.90
19342;DHT22;9807;48.258;12.690;2022-09-09T14:48:42;22.20;99.90
19342;DHT22;9807;48.258;12.690;2022-09-09T14:51:24;22.20;99.90
19342;DHT22;9807;48.258;12.690;2022-09-09T14:53:57;22.20;99.90
19342;DHT22;9807;48.258;12.690;2022-09-09T14:56:26;22.10;99.90
19342;DHT22;9807;48.258;12.690;2022-09-09T14:58:58;22.10;99.90
19342;DHT22;9807;48.258;12.690;2022-09-09T15:01:25;22.10;99.90
19342;DHT22;9807;48.258;12.690;2022-09-09T15:04:02;22.10;99.90
19342;DHT22;9807;48.258;12.690;2022-09-09T15:06:33;22.20;99.90
19342;DHT22;9807;48.258;12.690;2022-09-09T15:09:05;22.20;99.90
19342;DHT22;9807;48.258;12.690;2022-09-09T15:11:34;22.20;99.90
19342;DHT22;9807;48.258;12.690;2022-09-09T15:14:06;22.20;99.90
19342;DHT22;9807;48.258;12.690;2022-09-09T15:16:33;22.10;99.90
19342;DHT22;9807;48.258;12.690;2022-09-09T15:19:01;22.00;99.90
19342;DHT22;9807;48.258;12.690;2022-09-09T15:21:32;21.90;99.90
19342;DHT22;9807;48.258;12.690;2022-09-09T15:23:59;21.90;99.90
19342;DHT22;9807;48.258;12.690;2022-09-09T15:26:25;21.90;99.90
19342;DHT22;9807;48.258;12.690;2022-09-09T15:28:55;21.80;99.90
19342;DHT22;9807;48.258;12.690;2022-09-09T15:31:23;21.80;99.90
19342;DHT22;9807;48.258;12.690;2022-09-09T15:33:54;21.70;99.90
19342;DHT22;9807;48.258;12.690;2022-09-09T15:36:32;21.70;99.90
19342;DHT22;9807;48.258;12.690;2022-09-09T15:38:59;21.60;99.90
19342;DHT22;9807;48.258;12.690;2022-09-09T15:41:29;21.60;99.90
19342;DHT22;9807;48.258;12.690;2022-09-09T15:43:58;21.70;99.90
19342;DHT22;9807;48.258;12.690;2022-09-09T15:46:38;21.70;99.90
19342;DHT22;9807;48.258;12.690;2022-09-09T15:51:42;21.70;99.90
19342;DHT22;9807;48.258;12.690;2022-09-09T15:54:10;21.70;99.90
19342;DHT22;9807;48.258;12.690;2022-09-09T15:56:36;21.80;99.90
19342;DHT22;9807;48.258;12.690;2022-09-09T15:59:02;21.80;99.90
19342;DHT22;9807;48.258;12.690;2022-09-09T16:01:31;21.70;99.90
19342;DHT22;9807;48.258;12.690;2022-09-09T16:03:58;21.80;99.90
19342;DHT22;9807;48.258;12.690;2022-09-09T16:06:29;21.80;99.90
19342;DHT22;9807;48.258;12.690;2022-09-09T16:08:57;21.80;99.90
19342;DHT22;9807;48.258;12.690;2022-09-09T16:11:26;21.80;99.90
19342;DHT22;9807;48.258;12.690;2022-09-09T16:14:03;21.80;99.90
19342;DHT22;9807;48.258;12.690;2022-09-09T16:16:29;21.60;99.90
19342;DHT22;9807;48.258;12.690;2022-09-09T16:18:57;21.60;99.90
19342;DHT22;9807;48.258;12.690;2022-09-09T16:21:32;21.50;99.90
19342;DHT22;9807;48.258;12.690;2022-09-09T16:24:00;21.40;99.90
19342;DHT22;9807;48.258;12.690;2022-09-09T16:26:30;21.40;99.90
19342;DHT22;9807;48.258;12.690;2022-09-09T16:29:00;21.40;99.90
19342;DHT22;9807;48.258;12.690;2022-09-09T16:31:28;21.40;99.90
19342;DHT22;9807;48.258;12.690;2022-09-09T16:33:54;21.30;99.90
19342;DHT22;9807;48.258;12.690;2022-09-09T16:36:29;21.20;99.90
19342;DHT22;9807;48.258;12.690;2022-09-09T16:39:00;21.20;99.90
19342;DHT22;9807;48.258;12.690;2022-09-09T16:41:30;21.30;99.90
19342;DHT22;9807;48.258;12.690;2022-09-09T16:44:02;21.30;99.90
19342;DHT22;9807;48.258;12.690;2022-09-09T16:46:30;21.20;99.90
19342;DHT22;9807;48.258;12.690;2022-09-09T16:48:57;21.10;99.90
19342;DHT22;9807;48.258;12.690;2022-09-09T16:51:26;21.20;99.90
19342;DHT22;9807;48.258;12.690;2022-09-09T16:53:58;21.10;99.90
19342;DHT22;9807;48.258;12.690;2022-09-09T16:56:26;21.10;99.90
19342;DHT22;9807;48.258;12.690;2022-09-09T16:59:00;21.00;99.90
19342;DHT22;9807;48.258;12.690;2022-09-09T17:01:31;21.00;99.90
19342;DHT22;9807;48.258;12.690;2022-09-09T17:04:00;21.00;99.90
19342;DHT22;9807;48.258;12.690;2022-09-09T17:06:33;20.90;99.90
19342;DHT22;9807;48.258;12.690;2022-09-09T17:09:05;20.90;99.90
19342;DHT22;9807;48.258;12.690;2022-09-09T17:11:32;20.90;99.90
19342;DHT22;9807;48.258;12.690;2022-09-09T17:14:02;20.90;99.90
19342;DHT22;9807;48.258;12.690;2022-09-09T17:16:31;20.80;99.90
19342;DHT22;9807;48.258;12.690;2022-09-09T17:18:59;20.80;99.90
19342;DHT22;9807;48.258;12.690;2022-09-09T17:21:31;20.80;99.90
19342;DHT22;9807;48.258;12.690;2022-09-09T17:23:58;20.80;99.90
19342;DHT22;9807;48.258;12.690;2022-09-09T17:26:26;20.80;99.90
19342;DHT22;9807;48.258;12.690;2022-09-09T17:28:53;20.70;99.90
19342;DHT22;9807;48.258;12.690;2022-09-09T17:31:20;20.70;99.90
19342;DHT22;9807;48.258;12.690;2022-09-09T17:33:47;20.60;99.90
19342;DHT22;9807;48.258;12.690;2022-09-09T17:36:18;20.60;99.90
19342;DHT22;9807;48.258;12.690;2022-09-09T17:38:45;20.50;99.90
19342;DHT22;9807;48.258;12.690;2022-09-09T17:41:36;20.50;99.90
19342;DHT22;9807;48.258;12.690;2022-09-09T17:44:03;20.50;99.90
19342;DHT22;9807;48.258;12.690;2022-09-09T17:46:31;20.50;99.90
19342;DHT22;9807;48.258;12.690;2022-09-09T17:49:04;20.50;99.90
19342;DHT22;9807;48.258;12.690;2022-09-09T17:51:31;20.40;99.90